KCHA/CHA METAR and TAF weather

Enter ICAO airport designator
Station Type Date Time Source
KCHA METAR 2018/07/21 12:53 UTC NOAA

KCHA 211253Z 23007KT 10SM SCT033 SCT070 SCT150 22/17 A2993 RMK AO2 SLP125 T02170172


Station Type Date Time Source
KCHA Decoded METAR 2018/07/21 12:53 UTC NOAA

LOVELL FIELD, TN, United States (KCHA) 35-02N 085-12W 210M
Jul 21, 2018 - 08:53 AM EDT / 2018.07.21 1253 UTC
Wind: from the SW (230 degrees) at 8 MPH (7 KT):0
Visibility: 10 mile(s):0
Sky conditions: partly cloudy
Temperature: 71.1 F (21.7 C)
Dew Point: 63.0 F (17.2 C)
Relative Humidity: 75%
Pressure (altimeter): 29.93 in. Hg (1013 hPa)
ob: KCHA 211253Z 23007KT 10SM SCT033 SCT070 SCT150 22/17 A2993 RMK AO2 SLP125 T02170172
cycle: 13

Station Type Date Time Source
KCHA TAF 2018/07/21 12:27 UTC NOAA

TAF KCHA 211124Z 2112/2212 16006KT P6SM VCTS SCT028CB BKN050
FM211500 20008KT P6SM SCT050 BKN150
FM211900 22012G20KT P6SM VCTS SCT030CB BKN050
FM220100 31005KT P6SM SCT050 BKN150


Example: see airport list